Time;durP1;ratioP1;P1;durP2;ratioP2;P2;SDS_P1;SDS_P2;PMS_P1;PMS_P2;Temp;Humidity;BMP_temperature;BMP_pressure;BME280_temperature;BME280_humidity;BME280_pressure;Samples;Min_cycle;Max_cycle;Signal;HPM_P1;HPM_P2
2022/05/24 00:00:08;;;;;;;14.33;3.27;;;;;;;;;;5096114;28;20448;-69
2022/05/24 00:02:35;;;;;;;19.73;3.00;;;;;;;;;;5095975;28;20452;-69
2022/05/24 00:05:05;;;;;;;12.30;2.40;;;;;;;;;;5095862;28;20450;-69
2022/05/24 00:07:32;;;;;;;14.03;3.00;;;;;;;;;;5095647;28;20450;-69
2022/05/24 00:10:00;;;;;;;13.03;3.17;;;;;;;;;;5095985;28;20467;-69
2022/05/24 00:12:28;;;;;;;12.37;2.67;;;;;;;;;;5095707;28;20823;-69
2022/05/24 00:17:40;;;;;;;13.13;2.53;;;;;;;;;;5095955;28;21046;-69
2022/05/24 00:20:10;;;;;;;12.93;2.40;;;;;;;;;;5095533;28;20524;-69
2022/05/24 00:22:37;;;;;;;12.57;2.87;;;;;;;;;;5095181;28;20437;-69
2022/05/24 00:25:05;;;;;;;13.20;2.63;;;;;;;;;;5095626;28;20441;-69
2022/05/24 00:27:33;;;;;;;15.07;3.70;;;;;;;;;;5095407;28;20520;-69
2022/05/24 00:30:00;;;;;;;12.83;2.53;;;;;;;;;;5095480;28;20487;-69
2022/05/24 00:32:28;;;;;;;13.00;2.73;;;;;;;;;;5095421;28;20447;-69
2022/05/24 00:34:55;;;;;;;15.23;3.00;;;;;;;;;;5095478;28;20467;-69
2022/05/24 00:37:25;;;;;;;16.33;2.70;;;;;;;;;;5095088;28;20436;-69
2022/05/24 00:39:52;;;;;;;14.60;2.50;;;;;;;;;;5095414;28;20552;-69
2022/05/24 00:42:21;;;;;;;13.73;2.60;;;;;;;;;;5095234;28;20536;-69
2022/05/24 00:44:51;;;;;;;14.77;2.70;;;;;;;;;;5095091;28;20441;-69
2022/05/24 00:47:24;;;;;;;15.83;3.60;;;;;;;;;;5095032;28;20461;-69
2022/05/24 00:49:56;;;;;;;12.50;2.60;;;;;;;;;;5095240;28;20915;-69
2022/05/24 00:52:27;;;;;;;13.10;2.70;;;;;;;;;;5095289;28;20456;-69
2022/05/24 00:54:55;;;;;;;13.00;2.90;;;;;;;;;;5094948;28;20458;-69
2022/05/24 00:57:27;;;;;;;13.73;2.87;;;;;;;;;;5094544;28;20440;-69
2022/05/24 00:59:57;;;;;;;14.03;3.07;;;;;;;;;;5094988;28;21009;-69
2022/05/24 01:02:24;;;;;;;14.30;2.50;;;;;;;;;;5095273;28;20457;-69
2022/05/24 01:04:52;;;;;;;12.33;2.30;;;;;;;;;;5094987;28;20432;-68
2022/05/24 01:07:20;;;;;;;15.80;3.03;;;;;;;;;;5093519;28;20441;-69
2022/05/24 01:09:51;;;;;;;15.47;2.90;;;;;;;;;;5094673;28;20486;-69
2022/05/24 01:12:21;;;;;;;15.57;3.00;;;;;;;;;;5094989;28;20447;-69
2022/05/24 01:14:49;;;;;;;21.80;3.50;;;;;;;;;;5094552;28;20444;-69
2022/05/24 01:17:16;;;;;;;13.23;3.10;;;;;;;;;;5094118;28;20968;-69
2022/05/24 01:19:45;;;;;;;14.02;2.83;;;;;;;;;;5094857;28;20463;-69
2022/05/24 01:22:16;;;;;;;12.82;2.90;;;;;;;;;;5094598;28;20296;-69
2022/05/24 01:24:49;;;;;;;17.00;3.40;;;;;;;;;;5094163;28;20678;-69
2022/05/24 01:27:18;;;;;;;14.75;3.13;;;;;;;;;;5094116;28;20440;-69
2022/05/24 01:29:45;;;;;;;12.77;3.00;;;;;;;;;;5094122;28;20241;-69
2022/05/24 01:37:43;;;;;;;14.93;2.87;;;;;;;;;;5094435;28;20442;-68
2022/05/24 01:40:10;;;;;;;14.40;2.93;;;;;;;;;;5094275;28;20518;-68
2022/05/24 01:42:39;;;;;;;12.77;2.60;;;;;;;;;;5094209;28;20517;-69
2022/05/24 01:45:09;;;;;;;12.73;2.90;;;;;;;;;;5094038;28;20446;-69
2022/05/24 01:47:37;;;;;;;13.07;2.93;;;;;;;;;;5094052;28;20221;-69
2022/05/24 01:50:06;;;;;;;13.20;2.90;;;;;;;;;;5094213;28;20506;-68
2022/05/24 01:52:35;;;;;;;16.67;3.73;;;;;;;;;;5094056;28;20523;-68
2022/05/24 01:55:04;;;;;;;14.60;3.23;;;;;;;;;;5093744;28;20949;-69
2022/05/24 01:57:33;;;;;;;12.80;3.20;;;;;;;;;;5093509;28;20882;-69
2022/05/24 02:00:03;;;;;;;13.53;2.80;;;;;;;;;;5093726;28;20203;-69
2022/05/24 02:02:31;;;;;;;17.37;3.13;;;;;;;;;;5093691;28;20447;-69
2022/05/24 02:04:58;;;;;;;13.47;2.60;;;;;;;;;;5093610;28;20452;-69
2022/05/24 02:07:27;;;;;;;12.50;2.75;;;;;;;;;;5093530;28;20453;-69
2022/05/24 02:09:55;;;;;;;12.50;2.50;;;;;;;;;;5093632;28;20648;-68
2022/05/24 02:12:24;;;;;;;13.02;2.70;;;;;;;;;;5093358;28;20442;-69
2022/05/24 02:14:54;;;;;;;13.48;2.95;;;;;;;;;;5093346;28;20200;-69
2022/05/24 02:17:24;;;;;;;14.70;3.40;;;;;;;;;;5092831;28;20208;-69
2022/05/24 02:19:53;;;;;;;13.65;3.33;;;;;;;;;;5093290;28;20447;-69
2022/05/24 02:22:22;;;;;;;13.93;3.33;;;;;;;;;;5093590;28;20215;-69
2022/05/24 02:24:55;;;;;;;15.35;3.20;;;;;;;;;;5093263;28;20207;-69
2022/05/24 02:27:23;;;;;;;16.40;5.00;;;;;;;;;;5092995;28;20192;-69
2022/05/24 02:29:51;;;;;;;13.23;2.97;;;;;;;;;;5093339;28;20315;-69
2022/05/24 02:32:18;;;;;;;13.80;2.78;;;;;;;;;;5093395;28;20200;-69
2022/05/24 02:34:47;;;;;;;13.98;3.50;;;;;;;;;;5092934;28;20244;-69
2022/05/24 02:37:15;;;;;;;17.45;3.25;;;;;;;;;;5092785;28;20200;-69
2022/05/24 02:42:27;;;;;;;13.25;3.30;;;;;;;;;;5093317;28;20274;-69
2022/05/24 02:44:55;;;;;;;13.65;3.50;;;;;;;;;;5092791;28;20197;-69
2022/05/24 02:47:22;;;;;;;12.95;3.38;;;;;;;;;;5092548;28;20670;-69
2022/05/24 02:49:51;;;;;;;15.40;3.20;;;;;;;;;;5092644;28;20236;-69
2022/05/24 02:52:18;;;;;;;15.13;3.55;;;;;;;;;;5092920;28;20200;-69
2022/05/24 02:54:46;;;;;;;16.05;3.70;;;;;;;;;;5092823;28;20207;-68
2022/05/24 02:57:13;;;;;;;13.43;3.28;;;;;;;;;;5092630;28;20202;-69
2022/05/24 02:59:41;;;;;;;14.70;4.07;;;;;;;;;;5092562;28;20211;-68
2022/05/24 03:02:08;;;;;;;14.38;3.88;;;;;;;;;;5092514;28;20207;-68
2022/05/24 03:04:36;;;;;;;14.68;3.70;;;;;;;;;;5092521;28;20223;-69
2022/05/24 03:09:50;;;;;;;15.48;3.35;;;;;;;;;;5092748;28;20226;-69
2022/05/24 03:15:02;;;;;;;14.63;3.38;;;;;;;;;;5092405;28;20977;-69
2022/05/24 03:17:29;;;;;;;13.75;3.70;;;;;;;;;;5092271;28;20240;-68
2022/05/24 03:19:57;;;;;;;13.83;3.43;;;;;;;;;;5092431;28;20201;-69
2022/05/24 03:22:26;;;;;;;13.97;4.70;;;;;;;;;;5092332;28;20443;-69
2022/05/24 03:24:53;;;;;;;16.07;4.10;;;;;;;;;;5092282;28;20442;-69
2022/05/24 03:27:21;;;;;;;14.13;4.33;;;;;;;;;;5092055;28;20443;-69
2022/05/24 03:29:48;;;;;;;14.17;3.30;;;;;;;;;;5091784;28;20507;-69
2022/05/24 03:32:19;;;;;;;13.97;3.33;;;;;;;;;;5092012;28;20442;-69
2022/05/24 03:34:46;;;;;;;14.87;3.30;;;;;;;;;;5091678;28;20460;-69
2022/05/24 03:37:14;;;;;;;18.90;3.30;;;;;;;;;;5091735;28;20433;-71
2022/05/24 03:39:43;;;;;;;14.37;3.20;;;;;;;;;;5092223;28;20515;-69
2022/05/24 03:42:10;;;;;;;14.67;3.17;;;;;;;;;;5091893;28;20455;-69
2022/05/24 03:44:38;;;;;;;12.17;2.50;;;;;;;;;;5091921;28;20432;-69
2022/05/24 03:47:06;;;;;;;14.30;3.27;;;;;;;;;;5092297;28;20433;-69
2022/05/24 03:49:34;;;;;;;13.50;2.90;;;;;;;;;;5091546;28;21009;-69
2022/05/24 03:52:01;;;;;;;14.17;3.30;;;;;;;;;;5091849;28;20521;-69
2022/05/24 03:54:28;;;;;;;13.70;4.03;;;;;;;;;;5091721;28;20443;-70
2022/05/24 03:59:42;;;;;;;13.60;2.80;;;;;;;;;;5092023;28;20424;-69
2022/05/24 04:02:09;;;;;;;14.87;2.60;;;;;;;;;;5092089;28;20525;-70
2022/05/24 04:04:37;;;;;;;14.07;2.60;;;;;;;;;;5091763;28;20440;-69
2022/05/24 04:07:05;;;;;;;12.20;2.40;;;;;;;;;;5091536;28;21059;-69
2022/05/24 04:09:33;;;;;;;13.00;3.17;;;;;;;;;;5091718;28;20569;-69
2022/05/24 04:12:02;;;;;;;14.33;2.90;;;;;;;;;;5091871;28;20819;-69
2022/05/24 04:14:30;;;;;;;13.20;2.77;;;;;;;;;;5091891;28;20442;-69
2022/05/24 04:16:57;;;;;;;13.83;2.53;;;;;;;;;;5092004;28;20450;-69
2022/05/24 04:19:25;;;;;;;12.67;2.73;;;;;;;;;;5091159;28;20481;-69
2022/05/24 04:21:52;;;;;;;12.10;2.30;;;;;;;;;;5092164;28;20431;-70
2022/05/24 04:24:20;;;;;;;14.40;2.03;;;;;;;;;;5091603;28;20439;-69
2022/05/24 04:26:47;;;;;;;15.60;2.77;;;;;;;;;;5091858;28;20449;-69
2022/05/24 04:29:16;;;;;;;16.70;2.10;;;;;;;;;;5091564;28;20480;-71
2022/05/24 04:31:44;;;;;;;12.80;2.10;;;;;;;;;;5091953;28;20934;-71
2022/05/24 04:34:11;;;;;;;13.70;2.20;;;;;;;;;;5091013;28;20458;-69
2022/05/24 04:36:39;;;;;;;12.90;2.17;;;;;;;;;;5091659;28;20521;-69
2022/05/24 04:39:06;;;;;;;13.13;1.97;;;;;;;;;;5091622;28;20474;-69
2022/05/24 04:44:20;;;;;;;12.60;2.13;;;;;;;;;;5095293;28;20580;-70
2022/05/24 04:49:32;;;;;;;12.93;2.47;;;;;;;;;;5095032;28;20470;-69
2022/05/24 04:52:00;;;;;;;16.03;2.50;;;;;;;;;;5095080;28;20437;-69
2022/05/24 04:54:28;;;;;;;13.30;2.13;;;;;;;;;;5095110;28;20503;-70
2022/05/24 04:56:55;;;;;;;12.80;2.00;;;;;;;;;;5094852;28;20445;-69
2022/05/24 04:59:24;;;;;;;12.93;2.10;;;;;;;;;;5094630;28;20462;-70
2022/05/24 05:01:52;;;;;;;12.87;2.30;;;;;;;;;;5095080;28;20437;-70
2022/05/24 05:04:19;;;;;;;12.87;1.90;;;;;;;;;;5094964;28;20449;-70
2022/05/24 05:06:47;;;;;;;12.50;2.00;;;;;;;;;;5094893;28;20438;-69
2022/05/24 05:09:15;;;;;;;12.80;2.00;;;;;;;;;;5094708;28;20474;-71
2022/05/24 05:11:43;;;;;;;14.10;2.40;;;;;;;;;;5094733;28;20536;-70
2022/05/24 05:14:11;;;;;;;12.50;2.00;;;;;;;;;;5094889;28;20820;-70
2022/05/24 05:16:40;;;;;;;14.43;2.00;;;;;;;;;;5094764;28;20444;-70
2022/05/24 05:19:08;;;;;;;12.70;2.10;;;;;;;;;;5094647;28;20466;-70
2022/05/24 05:21:37;;;;;;;16.20;2.10;;;;;;;;;;5094299;28;20943;-70
2022/05/24 05:24:05;;;;;;;18.00;2.17;;;;;;;;;;5094327;28;20430;-70
2022/05/24 05:26:33;;;;;;;13.13;2.50;;;;;;;;;;5094366;28;20427;-70
2022/05/24 05:29:01;;;;;;;14.03;2.37;;;;;;;;;;5094757;28;20529;-70
2022/05/24 05:31:27;;;;;;;15.27;2.23;;;;;;;;;;5093910;28;20488;-70
2022/05/24 05:33:57;;;;;;;16.17;2.33;;;;;;;;;;5094043;28;20458;-70
2022/05/24 05:36:27;;;;;;;14.63;2.10;;;;;;;;;;5094210;28;20442;-70
2022/05/24 05:38:54;;;;;;;18.57;2.10;;;;;;;;;;5094126;28;20503;-70
2022/05/24 05:41:24;;;;;;;13.30;2.13;;;;;;;;;;5093815;28;20449;-71
2022/05/24 05:43:51;;;;;;;13.27;2.30;;;;;;;;;;5094205;28;20468;-70
2022/05/24 05:46:19;;;;;;;11.93;1.80;;;;;;;;;;5094422;28;20473;-70
2022/05/24 05:48:47;;;;;;;13.17;1.90;;;;;;;;;;5093988;28;20448;-70
2022/05/24 05:51:17;;;;;;;12.80;2.37;;;;;;;;;;5093414;28;20474;-70
2022/05/24 05:53:45;;;;;;;12.53;2.17;;;;;;;;;;5093300;28;20935;-70
2022/05/24 05:56:15;;;;;;;11.90;1.90;;;;;;;;;;5094138;28;20521;-71
2022/05/24 05:58:43;;;;;;;13.30;2.60;;;;;;;;;;5094220;28;20445;-70
2022/05/24 06:01:14;;;;;;;14.40;2.07;;;;;;;;;;5093710;28;20445;-70
2022/05/24 06:03:42;;;;;;;15.13;2.10;;;;;;;;;;5093634;28;20947;-70
2022/05/24 06:06:11;;;;;;;14.40;1.80;;;;;;;;;;5093905;28;20457;-70
2022/05/24 06:08:40;;;;;;;11.50;1.70;;;;;;;;;;5094084;28;20438;-70
2022/05/24 06:11:07;;;;;;;13.27;2.27;;;;;;;;;;5093468;28;20576;-70
2022/05/24 06:13:35;;;;;;;12.43;2.20;;;;;;;;;;5093290;28;20445;-70
2022/05/24 06:16:02;;;;;;;14.77;2.17;;;;;;;;;;5093221;28;20446;-70
2022/05/24 06:18:30;;;;;;;12.40;2.10;;;;;;;;;;5093526;28;21003;-70
2022/05/24 06:20:57;;;;;;;16.77;2.43;;;;;;;;;;5093508;28;20457;-70
2022/05/24 06:23:25;;;;;;;14.47;3.00;;;;;;;;;;5093241;28;20457;-70
2022/05/24 06:25:54;;;;;;;15.07;3.97;;;;;;;;;;5093246;28;21016;-70
2022/05/24 06:28:22;;;;;;;13.37;3.30;;;;;;;;;;5093055;28;20438;-70
2022/05/24 06:30:49;;;;;;;16.40;5.53;;;;;;;;;;5092916;28;20478;-70
2022/05/24 06:33:16;;;;;;;13.60;2.53;;;;;;;;;;5093107;28;20426;-70
2022/05/24 06:35:44;;;;;;;23.23;4.20;;;;;;;;;;5092761;28;20469;-70
2022/05/24 06:38:11;;;;;;;13.00;2.60;;;;;;;;;;5092977;28;20495;-70
2022/05/24 06:40:39;;;;;;;12.93;2.70;;;;;;;;;;5093023;28;20444;-70
2022/05/24 06:43:09;;;;;;;14.60;2.67;;;;;;;;;;5092834;28;20446;-70
2022/05/24 06:45:36;;;;;;;13.20;2.50;;;;;;;;;;5092673;28;20448;-70
2022/05/24 06:48:04;;;;;;;15.37;2.90;;;;;;;;;;5092992;28;20430;-70
2022/05/24 06:50:31;;;;;;;13.23;2.20;;;;;;;;;;5092757;28;20481;-70
2022/05/24 06:52:58;;;;;;;16.00;2.20;;;;;;;;;;5092734;28;20452;-70
2022/05/24 06:55:26;;;;;;;13.07;2.20;;;;;;;;;;5092330;28;20962;-70
2022/05/24 06:57:54;;;;;;;12.70;2.30;;;;;;;;;;5092415;28;20434;-70
2022/05/24 07:03:09;;;;;;;18.97;3.10;;;;;;;;;;5092700;28;20508;-70
2022/05/24 07:05:37;;;;;;;16.40;4.57;;;;;;;;;;5092199;28;20479;-70
2022/05/24 07:08:05;;;;;;;13.10;2.57;;;;;;;;;;5092461;28;20973;-70
2022/05/24 07:10:34;;;;;;;12.83;2.27;;;;;;;;;;5092192;28;20948;-71
2022/05/24 07:13:02;;;;;;;13.10;2.40;;;;;;;;;;5092328;28;20442;-70
2022/05/24 07:15:31;;;;;;;13.70;2.50;;;;;;;;;;5092345;28;20426;-70
2022/05/24 07:17:59;;;;;;;13.43;2.70;;;;;;;;;;5092382;28;20484;-70
2022/05/24 07:20:27;;;;;;;12.70;2.40;;;;;;;;;;5092291;28;20828;-70
2022/05/24 07:22:55;;;;;;;13.60;2.00;;;;;;;;;;5092131;28;20456;-71
2022/05/24 07:25:23;;;;;;;13.30;2.20;;;;;;;;;;5092263;28;20495;-70
2022/05/24 07:27:51;;;;;;;13.63;2.43;;;;;;;;;;5092279;28;20837;-70
2022/05/24 07:30:18;;;;;;;13.67;2.53;;;;;;;;;;5092137;28;21041;-70
2022/05/24 07:32:47;;;;;;;12.50;1.90;;;;;;;;;;5092164;28;20525;-70
2022/05/24 07:35:15;;;;;;;14.90;2.17;;;;;;;;;;5091308;28;21021;-70
2022/05/24 07:37:42;;;;;;;14.77;2.00;;;;;;;;;;5092266;28;20440;-70
2022/05/24 07:45:50;;;;;;;13.07;2.20;;;;;;;;;;5092227;28;20440;-70
2022/05/24 07:48:20;;;;;;;13.10;1.97;;;;;;;;;;5092009;28;20434;-70
2022/05/24 07:50:48;;;;;;;14.10;2.20;;;;;;;;;;5091752;28;21086;-70
2022/05/24 07:53:16;;;;;;;13.13;2.40;;;;;;;;;;5091905;28;20467;-71
2022/05/24 07:55:44;;;;;;;17.07;2.30;;;;;;;;;;5091942;28;20515;-70
2022/05/24 07:58:13;;;;;;;13.37;2.20;;;;;;;;;;5091811;28;20449;-69
2022/05/24 08:00:40;;;;;;;15.07;2.40;;;;;;;;;;5091764;28;20437;-70
2022/05/24 08:03:08;;;;;;;13.60;2.17;;;;;;;;;;5091627;28;20500;-70
2022/05/24 08:05:37;;;;;;;13.23;2.53;;;;;;;;;;5091606;28;20456;-70
2022/05/24 08:08:04;;;;;;;14.20;2.50;;;;;;;;;;5091862;28;20461;-70
2022/05/24 08:10:32;;;;;;;15.87;2.30;;;;;;;;;;5091657;28;20488;-70
2022/05/24 08:13:00;;;;;;;15.27;2.37;;;;;;;;;;5091654;28;20446;-70
2022/05/24 08:15:30;;;;;;;12.87;2.20;;;;;;;;;;5092645;28;20441;-70
2022/05/24 08:17:57;;;;;;;12.80;2.50;;;;;;;;;;5095993;28;20488;-70
2022/05/24 08:20:25;;;;;;;13.30;2.50;;;;;;;;;;5096119;28;20546;-70
2022/05/24 08:22:54;;;;;;;14.00;2.47;;;;;;;;;;5095554;28;20446;-70
2022/05/24 08:25:21;;;;;;;13.57;2.13;;;;;;;;;;5095291;28;20471;-70
2022/05/24 08:27:49;;;;;;;14.67;2.40;;;;;;;;;;5096366;28;20450;-70
2022/05/24 08:30:17;;;;;;;16.30;2.63;;;;;;;;;;5095516;28;20444;-70
2022/05/24 08:32:46;;;;;;;15.80;2.30;;;;;;;;;;5095527;28;20437;-69
2022/05/24 08:35:15;;;;;;;12.90;2.20;;;;;;;;;;5094747;28;20461;-72
2022/05/24 08:37:43;;;;;;;12.60;2.13;;;;;;;;;;5095271;28;20950;-70
2022/05/24 08:40:13;;;;;;;13.20;2.77;;;;;;;;;;5095545;28;20530;-70
2022/05/24 08:42:47;;;;;;;13.57;2.13;;;;;;;;;;5095281;28;20442;-69
2022/05/24 08:50:50;;;;;;;12.30;2.03;;;;;;;;;;5095371;28;20495;-70
2022/05/24 08:53:21;;;;;;;13.70;2.70;;;;;;;;;;5094429;28;20435;-70
2022/05/24 08:55:51;;;;;;;12.87;2.27;;;;;;;;;;5095015;28;20968;-70
2022/05/24 08:58:25;;;;;;;14.63;2.60;;;;;;;;;;5095196;28;20439;-70
2022/05/24 09:00:52;;;;;;;13.40;2.50;;;;;;;;;;5094848;28;20440;-70
2022/05/24 09:03:24;;;;;;;13.43;2.57;;;;;;;;;;5094615;28;20943;-69
2022/05/24 09:05:57;;;;;;;14.73;2.70;;;;;;;;;;5095146;28;20473;-70
2022/05/24 09:08:27;;;;;;;13.20;2.50;;;;;;;;;;5095152;28;20529;-70
2022/05/24 09:11:03;;;;;;;12.80;1.90;;;;;;;;;;5094629;28;20488;-70
2022/05/24 09:13:53;;;;;;;13.43;2.20;;;;;;;;;;5094475;28;20444;-70
2022/05/24 09:16:21;;;;;;;12.93;2.10;;;;;;;;;;5094713;28;20442;-69
2022/05/24 09:18:55;;;;;;;13.43;2.33;;;;;;;;;;5094353;28;21070;-70
2022/05/24 09:21:25;;;;;;;15.80;2.43;;;;;;;;;;5094591;28;20439;-70
2022/05/24 09:23:56;;;;;;;14.50;2.27;;;;;;;;;;5094369;28;20445;-70
2022/05/24 09:26:26;;;;;;;12.80;2.23;;;;;;;;;;5094437;28;20438;-70
2022/05/24 09:28:54;;;;;;;14.33;2.20;;;;;;;;;;5093872;28;20438;-70
2022/05/24 09:31:25;;;;;;;13.67;2.60;;;;;;;;;;5093988;28;20569;-70
2022/05/24 09:33:57;;;;;;;14.30;2.10;;;;;;;;;;5094096;28;20515;-69
2022/05/24 09:36:32;;;;;;;19.07;2.00;;;;;;;;;;5094192;28;20434;-70
2022/05/24 09:39:00;;;;;;;15.30;2.50;;;;;;;;;;5094173;28;20444;-70
2022/05/24 09:41:29;;;;;;;13.93;2.13;;;;;;;;;;5093895;28;20454;-70
2022/05/24 09:44:02;;;;;;;13.83;2.40;;;;;;;;;;5094032;28;20439;-70
2022/05/24 09:46:30;;;;;;;12.97;2.03;;;;;;;;;;5093987;28;20438;-70
2022/05/24 09:48:59;;;;;;;13.07;2.30;;;;;;;;;;5093839;28;20438;-70
2022/05/24 09:51:28;;;;;;;13.90;2.47;;;;;;;;;;5093534;28;20488;-69
2022/05/24 09:53:56;;;;;;;13.13;2.20;;;;;;;;;;5094078;28;20431;-70
2022/05/24 09:56:25;;;;;;;15.23;2.50;;;;;;;;;;5093781;28;20442;-70
2022/05/24 09:58:56;;;;;;;13.50;2.37;;;;;;;;;;5093777;28;20441;-70
2022/05/24 10:01:36;;;;;;;14.70;2.80;;;;;;;;;;5093710;28;20447;-69
2022/05/24 10:04:16;;;;;;;13.20;2.40;;;;;;;;;;5094126;28;20496;-70
2022/05/24 10:06:45;;;;;;;15.47;2.87;;;;;;;;;;5093748;28;20435;-70
2022/05/24 10:09:27;;;;;;;13.10;2.40;;;;;;;;;;5093611;28;20481;-70
2022/05/24 10:11:57;;;;;;;12.77;2.17;;;;;;;;;;5093427;28;20480;-70
2022/05/24 10:14:36;;;;;;;13.60;2.10;;;;;;;;;;5093437;28;20969;-70
2022/05/24 10:17:06;;;;;;;13.67;2.43;;;;;;;;;;5093144;28;20955;-70
2022/05/24 10:19:48;;;;;;;14.50;2.33;;;;;;;;;;5093125;28;20441;-70
2022/05/24 10:22:24;;;;;;;14.20;2.47;;;;;;;;;;5093315;28;20944;-70
2022/05/24 10:25:00;;;;;;;13.10;2.20;;;;;;;;;;5093297;28;20436;-70
2022/05/24 10:27:34;;;;;;;13.20;2.47;;;;;;;;;;5093143;28;20438;-70
2022/05/24 10:30:05;;;;;;;15.67;2.40;;;;;;;;;;5093309;28;20429;-70
2022/05/24 10:38:21;;;;;;;13.20;2.10;;;;;;;;;;5092929;28;20941;-70
2022/05/24 10:40:55;;;;;;;14.90;1.90;;;;;;;;;;5092971;28;20444;-70
2022/05/24 10:43:34;;;;;;;15.60;2.10;;;;;;;;;;5092945;28;20440;-70
2022/05/24 10:46:05;;;;;;;12.07;1.83;;;;;;;;;;5093118;28;20435;-70
2022/05/24 10:48:44;;;;;;;12.47;1.70;;;;;;;;;;5092887;28;20543;-70
2022/05/24 10:51:17;;;;;;;12.63;2.20;;;;;;;;;;5092582;28;20479;-69
2022/05/24 10:53:48;;;;;;;13.23;2.40;;;;;;;;;;5092748;28;20444;-70
2022/05/24 10:56:23;;;;;;;12.50;2.10;;;;;;;;;;5092952;28;20455;-70
2022/05/24 10:58:52;;;;;;;13.90;2.70;;;;;;;;;;5092637;28;20948;-71
2022/05/24 11:01:25;;;;;;;13.00;2.03;;;;;;;;;;5092315;28;20441;-69
2022/05/24 11:03:56;;;;;;;14.27;2.10;;;;;;;;;;5092544;28;20956;-70
2022/05/24 11:06:28;;;;;;;14.80;2.50;;;;;;;;;;5092875;28;20444;-70
2022/05/24 11:08:58;;;;;;;13.80;2.27;;;;;;;;;;5092771;28;20445;-70
2022/05/24 11:11:28;;;;;;;14.57;2.37;;;;;;;;;;5092197;28;20493;-70
2022/05/24 11:14:01;;;;;;;14.70;2.40;;;;;;;;;;5092366;28;20446;-70
2022/05/24 11:16:33;;;;;;;13.20;2.13;;;;;;;;;;5092407;28;20438;-70
2022/05/24 11:19:01;;;;;;;12.37;2.07;;;;;;;;;;5092211;28;20557;-69
2022/05/24 11:21:33;;;;;;;13.80;2.80;;;;;;;;;;5092165;28;20457;-70
2022/05/24 11:24:04;;;;;;;14.43;2.73;;;;;;;;;;5092196;28;20447;-70
2022/05/24 11:26:34;;;;;;;14.53;2.40;;;;;;;;;;5092098;28;20978;-70
2022/05/24 11:29:13;;;;;;;13.23;2.53;;;;;;;;;;5092200;28;20441;-70
2022/05/24 11:31:44;;;;;;;13.80;2.70;;;;;;;;;;5092028;28;20487;-70
2022/05/24 11:34:13;;;;;;;14.90;2.43;;;;;;;;;;5091913;28;20459;-70
2022/05/24 11:36:43;;;;;;;14.27;2.03;;;;;;;;;;5092024;28;20441;-70
2022/05/24 11:39:16;;;;;;;17.07;2.80;;;;;;;;;;5092003;28;20523;-70
2022/05/24 11:41:43;;;;;;;17.80;2.10;;;;;;;;;;5092565;28;20969;-70
2022/05/24 11:44:26;;;;;;;13.17;2.40;;;;;;;;;;5092260;28;20457;-70
2022/05/24 11:46:56;;;;;;;19.70;2.27;;;;;;;;;;5091898;28;20452;-70
2022/05/24 11:49:41;;;;;;;21.93;2.83;;;;;;;;;;5091879;28;20518;-70
2022/05/24 11:52:24;;;;;;;15.50;2.10;;;;;;;;;;5092003;28;20480;-70
2022/05/24 11:54:55;;;;;;;13.03;2.30;;;;;;;;;;5091132;28;20453;-70
2022/05/24 11:57:27;;;;;;;15.10;3.10;;;;;;;;;;5091609;28;20442;-70
2022/05/24 11:59:55;;;;;;;17.47;2.97;;;;;;;;;;5091959;28;20518;-70
2022/05/24 12:08:26;;;;;;;12.23;2.20;;;;;;;;;;5091861;28;20431;-70
2022/05/24 12:10:55;;;;;;;14.80;2.60;;;;;;;;;;5091946;28;20519;-70
2022/05/24 12:13:38;;;;;;;14.33;2.60;;;;;;;;;;5091319;28;20481;-70
2022/05/24 12:16:09;;;;;;;17.40;2.90;;;;;;;;;;5091895;28;20456;-70
2022/05/24 12:18:45;;;;;;;14.80;2.67;;;;;;;;;;5091896;28;20509;-69
2022/05/24 12:21:27;;;;;;;18.80;3.00;;;;;;;;;;5092028;28;20442;-70
2022/05/24 12:24:16;;;;;;;12.53;2.43;;;;;;;;;;5091450;28;20439;-70
2022/05/24 12:27:02;;;;;;;17.73;2.73;;;;;;;;;;5091697;28;20833;-70
2022/05/24 12:29:31;;;;;;;14.10;2.67;;;;;;;;;;5091548;28;20451;-70
2022/05/24 12:32:04;;;;;;;12.60;2.23;;;;;;;;;;5091590;28;20481;-70
2022/05/24 12:34:33;;;;;;;14.10;2.40;;;;;;;;;;5091124;28;20510;-70
2022/05/24 12:37:01;;;;;;;14.70;2.40;;;;;;;;;;5091356;28;20453;-70
2022/05/24 12:39:32;;;;;;;14.23;3.10;;;;;;;;;;5091377;28;20868;-70
2022/05/24 12:42:01;;;;;;;16.23;2.80;;;;;;;;;;5091857;28;20437;-70
2022/05/24 12:44:30;;;;;;;15.73;2.53;;;;;;;;;;5091911;28;20465;-70
2022/05/24 12:47:00;;;;;;;17.13;3.13;;;;;;;;;;5091568;28;20442;-70
2022/05/24 12:49:29;;;;;;;14.17;3.20;;;;;;;;;;5091215;28;20939;-70
2022/05/24 12:51:57;;;;;;;15.40;3.40;;;;;;;;;;5091284;28;20486;-70
2022/05/24 12:54:29;;;;;;;19.63;3.33;;;;;;;;;;5091977;28;20439;-70
2022/05/24 12:56:58;;;;;;;13.97;2.53;;;;;;;;;;5091453;28;20437;-70
2022/05/24 12:59:36;;;;;;;14.43;3.00;;;;;;;;;;5091150;28;20827;-70
2022/05/24 13:02:28;;;;;;;14.37;2.90;;;;;;;;;;5093196;28;20961;-70
2022/05/24 13:04:56;;;;;;;20.13;3.27;;;;;;;;;;5094867;28;20445;-70
2022/05/24 13:07:39;;;;;;;15.20;3.70;;;;;;;;;;5094627;28;20977;-70
2022/05/24 13:10:12;;;;;;;19.50;2.60;;;;;;;;;;5092968;28;20514;-70
2022/05/24 13:12:41;;;;;;;17.30;2.40;;;;;;;;;;5094734;28;21014;-70
2022/05/24 13:15:09;;;;;;;13.50;1.90;;;;;;;;;;5094773;28;20470;-70
2022/05/24 13:17:42;;;;;;;13.40;2.20;;;;;;;;;;5094282;28;20482;-70
2022/05/24 13:20:11;;;;;;;12.90;2.13;;;;;;;;;;5094567;28;20446;-70
2022/05/24 13:22:41;;;;;;;13.00;2.03;;;;;;;;;;5094661;28;20513;-70
2022/05/24 13:25:12;;;;;;;12.43;2.03;;;;;;;;;;5094382;28;20442;-70
2022/05/24 13:27:59;;;;;;;12.03;1.90;;;;;;;;;;5094697;28;20437;-70
2022/05/24 13:33:37;;;;;;;14.60;2.00;;;;;;;;;;5094148;28;20475;-70
2022/05/24 13:36:16;;;;;;;12.50;2.10;;;;;;;;;;5094384;28;20935;-70
2022/05/24 13:38:44;;;;;;;13.10;1.90;;;;;;;;;;5094241;28;20454;-69
2022/05/24 13:41:12;;;;;;;11.73;1.60;;;;;;;;;;5093919;28;20947;-70
2022/05/24 13:43:42;;;;;;;12.70;1.70;;;;;;;;;;5094184;28;20934;-70
2022/05/24 13:46:15;;;;;;;14.20;2.30;;;;;;;;;;5093989;28;20446;-70
2022/05/24 13:48:45;;;;;;;16.30;2.10;;;;;;;;;;5094600;28;20450;-70
2022/05/24 13:51:19;;;;;;;13.83;2.23;;;;;;;;;;5093897;28;20439;-70
2022/05/24 13:53:47;;;;;;;14.97;1.80;;;;;;;;;;5094272;28;20520;-70
2022/05/24 13:56:19;;;;;;;12.77;1.80;;;;;;;;;;5093870;28;20446;-70
2022/05/24 13:58:48;;;;;;;15.37;2.17;;;;;;;;;;5093696;28;20474;-70
2022/05/24 14:01:25;;;;;;;12.90;1.80;;;;;;;;;;5093714;28;20974;-69
2022/05/24 14:03:55;;;;;;;12.70;2.07;;;;;;;;;;5094061;28;20446;-70
2022/05/24 14:06:25;;;;;;;15.40;1.97;;;;;;;;;;5093667;28;21008;-70
2022/05/24 14:08:53;;;;;;;13.67;1.67;;;;;;;;;;5093764;28;20833;-70
2022/05/24 14:11:24;;;;;;;12.30;1.90;;;;;;;;;;5093326;28;20831;-70
2022/05/24 14:13:52;;;;;;;12.30;1.90;;;;;;;;;;5093430;28;20480;-70
2022/05/24 14:16:20;;;;;;;12.90;1.70;;;;;;;;;;5093790;28;20473;-70
2022/05/24 14:18:48;;;;;;;12.80;2.00;;;;;;;;;;5093152;28;20484;-70
2022/05/24 14:21:18;;;;;;;12.60;1.60;;;;;;;;;;5093192;28;20532;-70
2022/05/24 14:23:46;;;;;;;13.50;1.90;;;;;;;;;;5093266;28;20446;-70
2022/05/24 14:26:13;;;;;;;12.87;1.97;;;;;;;;;;5093493;28;20500;-70
2022/05/24 14:28:41;;;;;;;12.63;1.90;;;;;;;;;;5093353;28;20526;-69
2022/05/24 14:31:13;;;;;;;12.50;1.90;;;;;;;;;;5093287;28;20467;-70
2022/05/24 14:33:41;;;;;;;13.57;2.27;;;;;;;;;;5092914;28;20558;-70
2022/05/24 14:36:08;;;;;;;13.10;1.90;;;;;;;;;;5093074;28;20447;-69
2022/05/24 14:38:40;;;;;;;12.33;2.10;;;;;;;;;;5092977;28;20445;-70
2022/05/24 14:41:17;;;;;;;14.80;2.40;;;;;;;;;;5093192;28;20527;-70
2022/05/24 14:43:45;;;;;;;19.37;2.93;;;;;;;;;;5092998;28;20439;-70
2022/05/24 14:46:14;;;;;;;15.07;2.30;;;;;;;;;;5092844;28;20475;-70
2022/05/24 14:48:41;;;;;;;14.47;2.13;;;;;;;;;;5092820;28;20445;-70
2022/05/24 14:51:10;;;;;;;12.60;2.17;;;;;;;;;;5092788;28;20973;-70
2022/05/24 14:53:40;;;;;;;13.90;2.80;;;;;;;;;;5092399;28;21066;-70
2022/05/24 14:56:07;;;;;;;13.27;2.13;;;;;;;;;;5092822;28;20478;-70
2022/05/24 14:58:35;;;;;;;14.37;3.03;;;;;;;;;;5092716;28;20438;-70
2022/05/24 15:01:03;;;;;;;14.13;2.30;;;;;;;;;;5092547;28;20474;-70
2022/05/24 15:03:31;;;;;;;19.43;2.80;;;;;;;;;;5092244;28;20446;-69
2022/05/24 15:05:58;;;;;;;14.70;3.40;;;;;;;;;;5092663;28;20439;-70
2022/05/24 15:16:42;;;;;;;13.00;2.50;;;;;;;;;;5092940;28;20892;-70
2022/05/24 15:19:10;;;;;;;13.37;2.60;;;;;;;;;;5091973;28;20508;-69
2022/05/24 15:21:40;;;;;;;18.93;3.03;;;;;;;;;;5092006;28;20944;-70
2022/05/24 15:24:10;;;;;;;13.47;2.73;;;;;;;;;;5091905;28;20534;-70
2022/05/24 15:26:40;;;;;;;13.90;2.60;;;;;;;;;;5091841;28;20438;-71
2022/05/24 15:29:08;;;;;;;21.23;3.83;;;;;;;;;;5092486;28;20441;-70
2022/05/24 15:31:36;;;;;;;18.73;3.70;;;;;;;;;;5091954;28;20453;-70
2022/05/24 15:34:03;;;;;;;18.03;3.00;;;;;;;;;;5091692;28;20619;-70
2022/05/24 15:36:31;;;;;;;18.10;2.97;;;;;;;;;;5092105;28;20438;-70
2022/05/24 15:38:59;;;;;;;14.00;2.90;;;;;;;;;;5092249;28;20498;-70
2022/05/24 15:41:27;;;;;;;15.23;3.33;;;;;;;;;;5092001;28;20439;-70
2022/05/24 15:43:57;;;;;;;13.10;2.63;;;;;;;;;;5092121;28;20446;-69
2022/05/24 15:46:25;;;;;;;14.40;2.53;;;;;;;;;;5092417;28;20431;-69